sensor_id;sensor_type;location;lat;lon;timestamp;P1;durP1;ratioP1;P2;durP2;ratioP2
77814;SDS011;67002;52.124;21.210;2023-05-10T00:01:35;79.00;;;22.50;;
77814;SDS011;67002;52.124;21.210;2023-05-10T00:06:31;75.30;;;21.20;;
77814;SDS011;67002;52.124;21.210;2023-05-10T00:11:27;69.20;;;22.10;;
77814;SDS011;67002;52.124;21.210;2023-05-10T00:13:56;64.80;;;21.60;;
77814;SDS011;67002;52.124;21.210;2023-05-10T00:16:24;70.60;;;21.90;;
77814;SDS011;67002;52.124;21.210;2023-05-10T00:18:53;73.20;;;23.50;;
77814;SDS011;67002;52.124;21.210;2023-05-10T00:21:21;67.20;;;20.90;;
77814;SDS011;67002;52.124;21.210;2023-05-10T00:23:49;72.40;;;23.30;;
77814;SDS011;67002;52.124;21.210;2023-05-10T00:26:18;73.00;;;21.00;;
77814;SDS011;67002;52.124;21.210;2023-05-10T00:28:48;67.30;;;22.20;;
77814;SDS011;67002;52.124;21.210;2023-05-10T00:31:18;70.30;;;20.80;;
77814;SDS011;67002;52.124;21.210;2023-05-10T00:33:46;75.40;;;23.90;;
77814;SDS011;67002;52.124;21.210;2023-05-10T00:36:15;76.80;;;22.40;;
77814;SDS011;67002;52.124;21.210;2023-05-10T00:38:43;69.20;;;23.10;;
77814;SDS011;67002;52.124;21.210;2023-05-10T00:41:11;74.20;;;23.50;;
77814;SDS011;67002;52.124;21.210;2023-05-10T00:43:40;73.10;;;20.60;;
77814;SDS011;67002;52.124;21.210;2023-05-10T00:46:09;77.90;;;21.00;;
77814;SDS011;67002;52.124;21.210;2023-05-10T00:48:38;75.60;;;22.30;;
77814;SDS011;67002;52.124;21.210;2023-05-10T00:51:06;56.90;;;18.40;;
77814;SDS011;67002;52.124;21.210;2023-05-10T00:56:03;57.40;;;17.60;;
77814;SDS011;67002;52.124;21.210;2023-05-10T00:58:32;56.70;;;17.30;;
77814;SDS011;67002;52.124;21.210;2023-05-10T01:01:01;54.70;;;17.50;;
77814;SDS011;67002;52.124;21.210;2023-05-10T01:03:29;55.70;;;17.40;;
77814;SDS011;67002;52.124;21.210;2023-05-10T01:08:25;46.30;;;14.00;;
77814;SDS011;67002;52.124;21.210;2023-05-10T01:10:55;51.50;;;16.30;;
77814;SDS011;67002;52.124;21.210;2023-05-10T01:13:28;50.10;;;14.50;;
77814;SDS011;67002;52.124;21.210;2023-05-10T01:16:00;46.80;;;15.00;;
77814;SDS011;67002;52.124;21.210;2023-05-10T01:18:30;56.60;;;16.00;;
77814;SDS011;67002;52.124;21.210;2023-05-10T01:21:01;49.20;;;14.90;;
77814;SDS011;67002;52.124;21.210;2023-05-10T01:24:00;39.10;;;13.30;;
77814;SDS011;67002;52.124;21.210;2023-05-10T01:27:13;40.50;;;13.60;;
77814;SDS011;67002;52.124;21.210;2023-05-10T01:33:00;44.30;;;13.10;;
77814;SDS011;67002;52.124;21.210;2023-05-10T01:35:30;46.60;;;14.10;;
77814;SDS011;67002;52.124;21.210;2023-05-10T01:38:07;40.40;;;13.50;;
77814;SDS011;67002;52.124;21.210;2023-05-10T01:40:42;46.80;;;16.40;;
77814;SDS011;67002;52.124;21.210;2023-05-10T01:43:21;40.60;;;14.10;;
77814;SDS011;67002;52.124;21.210;2023-05-10T01:45:55;45.70;;;15.30;;
77814;SDS011;67002;52.124;21.210;2023-05-10T01:48:31;48.40;;;15.30;;
77814;SDS011;67002;52.124;21.210;2023-05-10T01:51:00;38.90;;;13.00;;
77814;SDS011;67002;52.124;21.210;2023-05-10T01:55:56;45.10;;;14.20;;
77814;SDS011;67002;52.124;21.210;2023-05-10T01:58:27;49.20;;;15.90;;
77814;SDS011;67002;52.124;21.210;2023-05-10T02:00:57;44.60;;;15.10;;
77814;SDS011;67002;52.124;21.210;2023-05-10T02:03:27;49.50;;;15.80;;
77814;SDS011;67002;52.124;21.210;2023-05-10T02:05:57;39.00;;;12.80;;
77814;SDS011;67002;52.124;21.210;2023-05-10T02:08:25;45.70;;;15.10;;
77814;SDS011;67002;52.124;21.210;2023-05-10T02:10:56;40.80;;;13.20;;
77814;SDS011;67002;52.124;21.210;2023-05-10T02:13:26;49.70;;;13.90;;
77814;SDS011;67002;52.124;21.210;2023-05-10T02:15:55;42.20;;;13.00;;
77814;SDS011;67002;52.124;21.210;2023-05-10T02:18:24;40.10;;;14.20;;
77814;SDS011;67002;52.124;21.210;2023-05-10T02:20:53;44.90;;;12.80;;
77814;SDS011;67002;52.124;21.210;2023-05-10T02:23:22;37.10;;;11.70;;
77814;SDS011;67002;52.124;21.210;2023-05-10T02:28:21;41.90;;;12.10;;
77814;SDS011;67002;52.124;21.210;2023-05-10T02:30:49;36.00;;;11.90;;
77814;SDS011;67002;52.124;21.210;2023-05-10T02:33:18;38.90;;;14.90;;
77814;SDS011;67002;52.124;21.210;2023-05-10T02:35:48;39.70;;;12.30;;
77814;SDS011;67002;52.124;21.210;2023-05-10T02:38:19;39.10;;;12.90;;
77814;SDS011;67002;52.124;21.210;2023-05-10T02:40:48;47.10;;;13.50;;
77814;SDS011;67002;52.124;21.210;2023-05-10T02:43:16;39.50;;;13.50;;
77814;SDS011;67002;52.124;21.210;2023-05-10T02:45:47;41.90;;;13.50;;
77814;SDS011;67002;52.124;21.210;2023-05-10T02:48:16;45.00;;;13.90;;
77814;SDS011;67002;52.124;21.210;2023-05-10T02:53:14;44.80;;;13.40;;
77814;SDS011;67002;52.124;21.210;2023-05-10T02:55:44;36.10;;;13.20;;
77814;SDS011;67002;52.124;21.210;2023-05-10T02:58:16;48.50;;;13.60;;
77814;SDS011;67002;52.124;21.210;2023-05-10T03:00:46;38.10;;;12.70;;
77814;SDS011;67002;52.124;21.210;2023-05-10T03:03:15;40.10;;;13.00;;
77814;SDS011;67002;52.124;21.210;2023-05-10T03:05:43;42.60;;;12.30;;
77814;SDS011;67002;52.124;21.210;2023-05-10T03:08:12;51.40;;;12.80;;
77814;SDS011;67002;52.124;21.210;2023-05-10T03:10:41;38.70;;;11.80;;
77814;SDS011;67002;52.124;21.210;2023-05-10T03:13:20;37.50;;;11.60;;
77814;SDS011;67002;52.124;21.210;2023-05-10T03:15:57;40.40;;;12.30;;
77814;SDS011;67002;52.124;21.210;2023-05-10T03:18:29;40.80;;;13.10;;
77814;SDS011;67002;52.124;21.210;2023-05-10T03:21:04;42.60;;;12.20;;
77814;SDS011;67002;52.124;21.210;2023-05-10T03:23:39;36.60;;;12.30;;
77814;SDS011;67002;52.124;21.210;2023-05-10T03:26:10;41.70;;;13.40;;
77814;SDS011;67002;52.124;21.210;2023-05-10T03:28:40;44.60;;;12.00;;
77814;SDS011;67002;52.124;21.210;2023-05-10T03:31:10;38.30;;;13.60;;
77814;SDS011;67002;52.124;21.210;2023-05-10T03:33:46;54.40;;;13.40;;
77814;SDS011;67002;52.124;21.210;2023-05-10T03:36:16;43.40;;;14.90;;
77814;SDS011;67002;52.124;21.210;2023-05-10T03:38:45;46.90;;;13.00;;
77814;SDS011;67002;52.124;21.210;2023-05-10T03:41:14;52.00;;;13.90;;
77814;SDS011;67002;52.124;21.210;2023-05-10T03:43:43;60.30;;;15.90;;
77814;SDS011;67002;52.124;21.210;2023-05-10T03:46:11;60.10;;;15.00;;
77814;SDS011;67002;52.124;21.210;2023-05-10T03:48:39;47.30;;;13.20;;
77814;SDS011;67002;52.124;21.210;2023-05-10T03:51:08;48.10;;;13.10;;
77814;SDS011;67002;52.124;21.210;2023-05-10T03:53:36;47.90;;;14.30;;
77814;SDS011;67002;52.124;21.210;2023-05-10T03:56:05;38.00;;;14.50;;
77814;SDS011;67002;52.124;21.210;2023-05-10T04:01:01;48.70;;;14.80;;
77814;SDS011;67002;52.124;21.210;2023-05-10T04:03:30;45.00;;;13.20;;
77814;SDS011;67002;52.124;21.210;2023-05-10T04:06:00;47.90;;;14.40;;
77814;SDS011;67002;52.124;21.210;2023-05-10T04:08:29;58.70;;;13.20;;
77814;SDS011;67002;52.124;21.210;2023-05-10T04:11:05;42.90;;;13.50;;
77814;SDS011;67002;52.124;21.210;2023-05-10T04:13:34;43.50;;;12.80;;
77814;SDS011;67002;52.124;21.210;2023-05-10T04:16:03;40.90;;;13.80;;
77814;SDS011;67002;52.124;21.210;2023-05-10T04:18:32;43.20;;;13.10;;
77814;SDS011;67002;52.124;21.210;2023-05-10T04:21:00;41.50;;;12.20;;
77814;SDS011;67002;52.124;21.210;2023-05-10T04:23:29;34.60;;;11.90;;
77814;SDS011;67002;52.124;21.210;2023-05-10T04:26:01;43.50;;;14.90;;
77814;SDS011;67002;52.124;21.210;2023-05-10T04:28:29;39.00;;;13.60;;
77814;SDS011;67002;52.124;21.210;2023-05-10T04:31:01;39.20;;;14.20;;
77814;SDS011;67002;52.124;21.210;2023-05-10T04:33:30;38.00;;;13.10;;
77814;SDS011;67002;52.124;21.210;2023-05-10T04:35:58;39.70;;;13.30;;
77814;SDS011;67002;52.124;21.210;2023-05-10T04:38:27;39.30;;;13.50;;
77814;SDS011;67002;52.124;21.210;2023-05-10T04:41:03;45.90;;;13.70;;
77814;SDS011;67002;52.124;21.210;2023-05-10T04:43:33;39.40;;;12.00;;
77814;SDS011;67002;52.124;21.210;2023-05-10T04:46:01;43.00;;;12.00;;
77814;SDS011;67002;52.124;21.210;2023-05-10T04:48:31;36.40;;;12.10;;
77814;SDS011;67002;52.124;21.210;2023-05-10T04:50:59;35.70;;;12.30;;
77814;SDS011;67002;52.124;21.210;2023-05-10T04:53:27;35.70;;;10.60;;
77814;SDS011;67002;52.124;21.210;2023-05-10T04:55:56;38.60;;;11.40;;
77814;SDS011;67002;52.124;21.210;2023-05-10T04:58:24;38.80;;;12.10;;
77814;SDS011;67002;52.124;21.210;2023-05-10T05:03:20;36.10;;;11.90;;
77814;SDS011;67002;52.124;21.210;2023-05-10T05:05:49;39.90;;;11.20;;
77814;SDS011;67002;52.124;21.210;2023-05-10T05:10:45;40.50;;;10.50;;
77814;SDS011;67002;52.124;21.210;2023-05-10T05:13:14;39.40;;;12.60;;
77814;SDS011;67002;52.124;21.210;2023-05-10T05:15:42;42.80;;;13.40;;
77814;SDS011;67002;52.124;21.210;2023-05-10T05:20:38;36.70;;;10.50;;
77814;SDS011;67002;52.124;21.210;2023-05-10T05:23:07;34.60;;;11.30;;
77814;SDS011;67002;52.124;21.210;2023-05-10T05:28:03;35.00;;;10.30;;
77814;SDS011;67002;52.124;21.210;2023-05-10T05:30:32;39.10;;;11.60;;
77814;SDS011;67002;52.124;21.210;2023-05-10T05:33:01;34.40;;;10.70;;
77814;SDS011;67002;52.124;21.210;2023-05-10T05:35:30;38.00;;;11.90;;
77814;SDS011;67002;52.124;21.210;2023-05-10T05:40:26;33.50;;;10.10;;
77814;SDS011;67002;52.124;21.210;2023-05-10T05:42:54;39.40;;;10.80;;
77814;SDS011;67002;52.124;21.210;2023-05-10T05:45:23;36.80;;;10.80;;
77814;SDS011;67002;52.124;21.210;2023-05-10T05:47:52;33.40;;;9.20;;
77814;SDS011;67002;52.124;21.210;2023-05-10T05:50:20;26.20;;;11.30;;
77814;SDS011;67002;52.124;21.210;2023-05-10T05:52:48;44.50;;;11.40;;
77814;SDS011;67002;52.124;21.210;2023-05-10T05:55:18;25.70;;;9.60;;
77814;SDS011;67002;52.124;21.210;2023-05-10T05:57:47;25.30;;;8.90;;
77814;SDS011;67002;52.124;21.210;2023-05-10T06:00:16;36.60;;;10.70;;
77814;SDS011;67002;52.124;21.210;2023-05-10T06:02:45;37.80;;;11.20;;
77814;SDS011;67002;52.124;21.210;2023-05-10T06:05:15;30.20;;;9.10;;
77814;SDS011;67002;52.124;21.210;2023-05-10T06:07:43;41.30;;;10.60;;
77814;SDS011;67002;52.124;21.210;2023-05-10T06:10:12;26.10;;;8.50;;
77814;SDS011;67002;52.124;21.210;2023-05-10T06:12:41;35.60;;;9.60;;
77814;SDS011;67002;52.124;21.210;2023-05-10T06:15:10;34.60;;;10.90;;
77814;SDS011;67002;52.124;21.210;2023-05-10T06:17:39;28.40;;;9.80;;
77814;SDS011;67002;52.124;21.210;2023-05-10T06:20:08;27.80;;;8.70;;
77814;SDS011;67002;52.124;21.210;2023-05-10T06:22:38;25.10;;;8.80;;
77814;SDS011;67002;52.124;21.210;2023-05-10T06:25:07;28.40;;;10.30;;
77814;SDS011;67002;52.124;21.210;2023-05-10T06:27:37;32.80;;;9.40;;
77814;SDS011;67002;52.124;21.210;2023-05-10T06:30:06;27.40;;;9.50;;
77814;SDS011;67002;52.124;21.210;2023-05-10T06:32:41;28.30;;;9.80;;
77814;SDS011;67002;52.124;21.210;2023-05-10T06:35:11;16.40;;;7.50;;
77814;SDS011;67002;52.124;21.210;2023-05-10T06:37:40;25.20;;;9.30;;
77814;SDS011;67002;52.124;21.210;2023-05-10T06:40:09;23.60;;;8.30;;
77814;SDS011;67002;52.124;21.210;2023-05-10T06:42:38;27.50;;;9.00;;
77814;SDS011;67002;52.124;21.210;2023-05-10T06:45:08;22.50;;;9.20;;
77814;SDS011;67002;52.124;21.210;2023-05-10T06:47:37;27.10;;;9.10;;
77814;SDS011;67002;52.124;21.210;2023-05-10T06:50:07;24.80;;;8.30;;
77814;SDS011;67002;52.124;21.210;2023-05-10T06:52:36;21.50;;;8.60;;
77814;SDS011;67002;52.124;21.210;2023-05-10T06:55:05;23.10;;;8.90;;
77814;SDS011;67002;52.124;21.210;2023-05-10T06:57:35;25.50;;;7.90;;
77814;SDS011;67002;52.124;21.210;2023-05-10T07:00:04;21.40;;;9.10;;
77814;SDS011;67002;52.124;21.210;2023-05-10T07:02:34;16.50;;;7.50;;
77814;SDS011;67002;52.124;21.210;2023-05-10T07:05:03;21.60;;;8.60;;
77814;SDS011;67002;52.124;21.210;2023-05-10T07:07:32;25.80;;;8.40;;
77814;SDS011;67002;52.124;21.210;2023-05-10T07:10:01;18.80;;;7.50;;
77814;SDS011;67002;52.124;21.210;2023-05-10T07:12:29;18.30;;;7.50;;
77814;SDS011;67002;52.124;21.210;2023-05-10T07:14:58;23.80;;;7.60;;
77814;SDS011;67002;52.124;21.210;2023-05-10T07:17:26;19.90;;;7.80;;
77814;SDS011;67002;52.124;21.210;2023-05-10T07:19:55;16.80;;;7.30;;
77814;SDS011;67002;52.124;21.210;2023-05-10T07:22:23;19.40;;;7.70;;
77814;SDS011;67002;52.124;21.210;2023-05-10T07:24:52;21.60;;;8.00;;
77814;SDS011;67002;52.124;21.210;2023-05-10T07:27:20;24.50;;;9.00;;
77814;SDS011;67002;52.124;21.210;2023-05-10T07:29:48;21.90;;;8.90;;
77814;SDS011;67002;52.124;21.210;2023-05-10T07:32:17;23.70;;;8.40;;
77814;SDS011;67002;52.124;21.210;2023-05-10T07:34:45;23.80;;;8.40;;
77814;SDS011;67002;52.124;21.210;2023-05-10T07:37:14;17.40;;;7.90;;
77814;SDS011;67002;52.124;21.210;2023-05-10T07:39:42;19.00;;;8.80;;
77814;SDS011;67002;52.124;21.210;2023-05-10T07:42:10;21.90;;;8.10;;
77814;SDS011;67002;52.124;21.210;2023-05-10T07:44:40;20.80;;;8.50;;
77814;SDS011;67002;52.124;21.210;2023-05-10T07:47:08;22.10;;;7.00;;
77814;SDS011;67002;52.124;21.210;2023-05-10T07:49:37;17.00;;;6.30;;
77814;SDS011;67002;52.124;21.210;2023-05-10T07:52:06;26.60;;;8.20;;
77814;SDS011;67002;52.124;21.210;2023-05-10T07:54:34;22.70;;;7.30;;
77814;SDS011;67002;52.124;21.210;2023-05-10T07:57:03;19.70;;;8.70;;
77814;SDS011;67002;52.124;21.210;2023-05-10T07:59:31;20.60;;;7.80;;
77814;SDS011;67002;52.124;21.210;2023-05-10T08:02:00;20.30;;;8.80;;
77814;SDS011;67002;52.124;21.210;2023-05-10T08:04:28;25.50;;;8.70;;
77814;SDS011;67002;52.124;21.210;2023-05-10T08:06:57;20.60;;;8.40;;
77814;SDS011;67002;52.124;21.210;2023-05-10T08:09:25;20.90;;;7.40;;
77814;SDS011;67002;52.124;21.210;2023-05-10T08:11:53;20.60;;;7.30;;
77814;SDS011;67002;52.124;21.210;2023-05-10T08:14:22;20.00;;;7.90;;
77814;SDS011;67002;52.124;21.210;2023-05-10T08:16:50;18.30;;;7.60;;
77814;SDS011;67002;52.124;21.210;2023-05-10T08:19:18;24.00;;;8.00;;
77814;SDS011;67002;52.124;21.210;2023-05-10T08:21:48;24.60;;;8.90;;
77814;SDS011;67002;52.124;21.210;2023-05-10T08:24:16;20.20;;;7.10;;
77814;SDS011;67002;52.124;21.210;2023-05-10T08:26:45;21.30;;;8.50;;
77814;SDS011;67002;52.124;21.210;2023-05-10T08:29:14;20.50;;;8.20;;
77814;SDS011;67002;52.124;21.210;2023-05-10T08:31:42;16.80;;;7.30;;
77814;SDS011;67002;52.124;21.210;2023-05-10T08:34:12;21.70;;;8.40;;
77814;SDS011;67002;52.124;21.210;2023-05-10T08:36:40;19.40;;;7.40;;
77814;SDS011;67002;52.124;21.210;2023-05-10T08:39:09;22.30;;;6.70;;
77814;SDS011;67002;52.124;21.210;2023-05-10T08:41:57;21.50;;;9.00;;
77814;SDS011;67002;52.124;21.210;2023-05-10T08:44:26;24.10;;;8.80;;
77814;SDS011;67002;52.124;21.210;2023-05-10T08:46:55;23.00;;;7.90;;
77814;SDS011;67002;52.124;21.210;2023-05-10T08:49:24;18.20;;;7.70;;
77814;SDS011;67002;52.124;21.210;2023-05-10T08:51:54;25.30;;;8.40;;
77814;SDS011;67002;52.124;21.210;2023-05-10T08:54:23;18.80;;;7.70;;
77814;SDS011;67002;52.124;21.210;2023-05-10T08:56:52;17.50;;;6.80;;
77814;SDS011;67002;52.124;21.210;2023-05-10T08:59:21;20.80;;;7.60;;
77814;SDS011;67002;52.124;21.210;2023-05-10T09:01:50;17.40;;;6.80;;
77814;SDS011;67002;52.124;21.210;2023-05-10T09:04:20;21.30;;;8.00;;
77814;SDS011;67002;52.124;21.210;2023-05-10T09:06:49;21.70;;;8.20;;
77814;SDS011;67002;52.124;21.210;2023-05-10T09:09:17;21.90;;;9.20;;
77814;SDS011;67002;52.124;21.210;2023-05-10T09:11:45;27.00;;;7.90;;
77814;SDS011;67002;52.124;21.210;2023-05-10T09:14:14;16.80;;;7.80;;
77814;SDS011;67002;52.124;21.210;2023-05-10T09:16:44;21.50;;;7.80;;
77814;SDS011;67002;52.124;21.210;2023-05-10T09:19:12;23.60;;;7.90;;
77814;SDS011;67002;52.124;21.210;2023-05-10T09:21:41;17.50;;;8.10;;
77814;SDS011;67002;52.124;21.210;2023-05-10T09:24:10;22.00;;;7.60;;
77814;SDS011;67002;52.124;21.210;2023-05-10T09:26:45;13.40;;;6.40;;
77814;SDS011;67002;52.124;21.210;2023-05-10T09:29:15;20.10;;;7.50;;
77814;SDS011;67002;52.124;21.210;2023-05-10T09:31:45;19.40;;;6.80;;
77814;SDS011;67002;52.124;21.210;2023-05-10T09:34:17;22.60;;;9.00;;
77814;SDS011;67002;52.124;21.210;2023-05-10T09:36:56;21.00;;;7.90;;
77814;SDS011;67002;52.124;21.210;2023-05-10T09:39:30;27.70;;;7.80;;
77814;SDS011;67002;52.124;21.210;2023-05-10T09:41:59;22.90;;;7.70;;
77814;SDS011;67002;52.124;21.210;2023-05-10T09:44:30;20.80;;;7.40;;
77814;SDS011;67002;52.124;21.210;2023-05-10T09:46:59;20.60;;;8.40;;
77814;SDS011;67002;52.124;21.210;2023-05-10T09:49:28;19.80;;;8.40;;
77814;SDS011;67002;52.124;21.210;2023-05-10T09:52:00;26.00;;;7.90;;
77814;SDS011;67002;52.124;21.210;2023-05-10T09:54:29;24.50;;;8.10;;
77814;SDS011;67002;52.124;21.210;2023-05-10T09:56:58;21.30;;;8.30;;
77814;SDS011;67002;52.124;21.210;2023-05-10T09:59:27;18.00;;;7.90;;
77814;SDS011;67002;52.124;21.210;2023-05-10T10:01:56;15.70;;;6.30;;
77814;SDS011;67002;52.124;21.210;2023-05-10T10:04:25;18.90;;;7.80;;
77814;SDS011;67002;52.124;21.210;2023-05-10T10:07:01;17.30;;;7.20;;
77814;SDS011;67002;52.124;21.210;2023-05-10T10:09:30;22.70;;;8.20;;
77814;SDS011;67002;52.124;21.210;2023-05-10T10:11:59;21.60;;;7.70;;
77814;SDS011;67002;52.124;21.210;2023-05-10T10:14:28;23.30;;;8.60;;
77814;SDS011;67002;52.124;21.210;2023-05-10T10:16:56;20.60;;;7.30;;
77814;SDS011;67002;52.124;21.210;2023-05-10T10:19:28;21.50;;;8.50;;
77814;SDS011;67002;52.124;21.210;2023-05-10T10:21:56;23.40;;;8.80;;
77814;SDS011;67002;52.124;21.210;2023-05-10T10:24:25;24.90;;;8.20;;
77814;SDS011;67002;52.124;21.210;2023-05-10T10:26:55;22.80;;;6.90;;
77814;SDS011;67002;52.124;21.210;2023-05-10T10:29:31;28.50;;;9.50;;
77814;SDS011;67002;52.124;21.210;2023-05-10T10:32:03;21.20;;;7.50;;
77814;SDS011;67002;52.124;21.210;2023-05-10T10:34:38;16.60;;;7.30;;
77814;SDS011;67002;52.124;21.210;2023-05-10T10:37:07;25.00;;;8.20;;
77814;SDS011;67002;52.124;21.210;2023-05-10T10:39:36;26.40;;;7.80;;
77814;SDS011;67002;52.124;21.210;2023-05-10T10:42:04;16.50;;;7.00;;
77814;SDS011;67002;52.124;21.210;2023-05-10T10:44:36;21.20;;;8.40;;
77814;SDS011;67002;52.124;21.210;2023-05-10T10:47:06;13.00;;;5.50;;
77814;SDS011;67002;52.124;21.210;2023-05-10T10:49:41;19.50;;;7.90;;
77814;SDS011;67002;52.124;21.210;2023-05-10T10:52:14;24.50;;;8.60;;
77814;SDS011;67002;52.124;21.210;2023-05-10T10:54:52;19.70;;;7.10;;
77814;SDS011;67002;52.124;21.210;2023-05-10T10:57:24;23.40;;;8.10;;
77814;SDS011;67002;52.124;21.210;2023-05-10T10:59:59;26.90;;;8.10;;
77814;SDS011;67002;52.124;21.210;2023-05-10T11:02:47;26.50;;;10.70;;
77814;SDS011;67002;52.124;21.210;2023-05-10T11:05:33;16.00;;;7.40;;
77814;SDS011;67002;52.124;21.210;2023-05-10T11:08:09;24.10;;;9.50;;
77814;SDS011;67002;52.124;21.210;2023-05-10T11:10:52;18.50;;;7.60;;
77814;SDS011;67002;52.124;21.210;2023-05-10T11:13:31;19.70;;;7.10;;
77814;SDS011;67002;52.124;21.210;2023-05-10T11:16:09;22.00;;;9.20;;
77814;SDS011;67002;52.124;21.210;2023-05-10T11:18:49;16.40;;;6.70;;
77814;SDS011;67002;52.124;21.210;2023-05-10T11:21:21;17.60;;;8.30;;
77814;SDS011;67002;52.124;21.210;2023-05-10T11:23:50;17.10;;;8.10;;
77814;SDS011;67002;52.124;21.210;2023-05-10T11:26:23;19.60;;;8.00;;
77814;SDS011;67002;52.124;21.210;2023-05-10T11:28:53;22.40;;;8.50;;
77814;SDS011;67002;52.124;21.210;2023-05-10T11:31:25;22.00;;;8.40;;
77814;SDS011;67002;52.124;21.210;2023-05-10T11:33:55;22.00;;;10.50;;
77814;SDS011;67002;52.124;21.210;2023-05-10T11:36:26;23.30;;;8.10;;
77814;SDS011;67002;52.124;21.210;2023-05-10T11:38:56;27.90;;;9.20;;
77814;SDS011;67002;52.124;21.210;2023-05-10T11:41:25;23.00;;;9.10;;
77814;SDS011;67002;52.124;21.210;2023-05-10T11:43:55;21.90;;;7.90;;
77814;SDS011;67002;52.124;21.210;2023-05-10T11:46:24;14.00;;;5.90;;
77814;SDS011;67002;52.124;21.210;2023-05-10T11:48:59;29.10;;;8.30;;
77814;SDS011;67002;52.124;21.210;2023-05-10T11:51:32;21.10;;;8.00;;
77814;SDS011;67002;52.124;21.210;2023-05-10T11:54:05;20.10;;;8.20;;
77814;SDS011;67002;52.124;21.210;2023-05-10T11:56:34;26.60;;;13.60;;
77814;SDS011;67002;52.124;21.210;2023-05-10T11:59:03;24.90;;;12.10;;
77814;SDS011;67002;52.124;21.210;2023-05-10T12:01:31;20.00;;;10.50;;
77814;SDS011;67002;52.124;21.210;2023-05-10T12:04:00;26.50;;;9.80;;
77814;SDS011;67002;52.124;21.210;2023-05-10T12:06:29;25.80;;;9.30;;
77814;SDS011;67002;52.124;21.210;2023-05-10T12:08:58;20.70;;;9.30;;
77814;SDS011;67002;52.124;21.210;2023-05-10T12:11:30;15.90;;;7.60;;
77814;SDS011;67002;52.124;21.210;2023-05-10T12:13:58;18.20;;;8.00;;
77814;SDS011;67002;52.124;21.210;2023-05-10T12:16:28;9.30;;;6.30;;
77814;SDS011;67002;52.124;21.210;2023-05-10T12:18:57;16.10;;;9.20;;
77814;SDS011;67002;52.124;21.210;2023-05-10T12:21:27;18.60;;;7.90;;
77814;SDS011;67002;52.124;21.210;2023-05-10T12:23:59;16.10;;;8.80;;
77814;SDS011;67002;52.124;21.210;2023-05-10T12:26:28;22.40;;;9.10;;
77814;SDS011;67002;52.124;21.210;2023-05-10T12:29:11;21.80;;;7.70;;
77814;SDS011;67002;52.124;21.210;2023-05-10T12:31:51;14.70;;;8.60;;
77814;SDS011;67002;52.124;21.210;2023-05-10T12:34:25;19.10;;;9.00;;
77814;SDS011;67002;52.124;21.210;2023-05-10T12:36:54;17.40;;;7.30;;
77814;SDS011;67002;52.124;21.210;2023-05-10T12:39:22;19.80;;;11.00;;
77814;SDS011;67002;52.124;21.210;2023-05-10T12:41:51;24.10;;;11.20;;
77814;SDS011;67002;52.124;21.210;2023-05-10T12:44:19;16.50;;;8.50;;
77814;SDS011;67002;52.124;21.210;2023-05-10T12:46:48;24.90;;;15.40;;
77814;SDS011;67002;52.124;21.210;2023-05-10T12:49:16;18.00;;;11.10;;
77814;SDS011;67002;52.124;21.210;2023-05-10T12:51:45;27.60;;;18.20;;
77814;SDS011;67002;52.124;21.210;2023-05-10T12:54:14;23.10;;;11.80;;
77814;SDS011;67002;52.124;21.210;2023-05-10T12:56:42;21.80;;;12.40;;
77814;SDS011;67002;52.124;21.210;2023-05-10T12:59:10;22.70;;;11.50;;
77814;SDS011;67002;52.124;21.210;2023-05-10T13:01:39;23.20;;;12.50;;
77814;SDS011;67002;52.124;21.210;2023-05-10T13:04:07;20.10;;;11.60;;
77814;SDS011;67002;52.124;21.210;2023-05-10T13:06:36;23.00;;;17.60;;
77814;SDS011;67002;52.124;21.210;2023-05-10T13:09:05;27.00;;;20.30;;
77814;SDS011;67002;52.124;21.210;2023-05-10T13:11:33;17.40;;;13.20;;
77814;SDS011;67002;52.124;21.210;2023-05-10T13:14:02;19.40;;;9.60;;
77814;SDS011;67002;52.124;21.210;2023-05-10T13:16:30;19.70;;;16.80;;
77814;SDS011;67002;52.124;21.210;2023-05-10T13:18:59;19.70;;;16.00;;
77814;SDS011;67002;52.124;21.210;2023-05-10T13:21:27;11.90;;;9.50;;
77814;SDS011;67002;52.124;21.210;2023-05-10T13:23:56;23.40;;;8.30;;
77814;SDS011;67002;52.124;21.210;2023-05-10T13:26:24;21.00;;;6.90;;
77814;SDS011;67002;52.124;21.210;2023-05-10T13:28:53;10.50;;;6.00;;
77814;SDS011;67002;52.124;21.210;2023-05-10T13:31:22;12.10;;;5.40;;
77814;SDS011;67002;52.124;21.210;2023-05-10T13:33:51;12.90;;;5.40;;
77814;SDS011;67002;52.124;21.210;2023-05-10T13:36:19;13.10;;;5.70;;
77814;SDS011;67002;52.124;21.210;2023-05-10T13:38:49;11.80;;;5.10;;
77814;SDS011;67002;52.124;21.210;2023-05-10T13:41:18;11.00;;;4.70;;
77814;SDS011;67002;52.124;21.210;2023-05-10T13:43:46;12.70;;;5.60;;
77814;SDS011;67002;52.124;21.210;2023-05-10T13:46:16;14.50;;;5.50;;
77814;SDS011;67002;52.124;21.210;2023-05-10T13:48:44;21.60;;;6.40;;
77814;SDS011;67002;52.124;21.210;2023-05-10T13:51:13;10.00;;;5.10;;
77814;SDS011;67002;52.124;21.210;2023-05-10T13:53:41;16.70;;;5.80;;
77814;SDS011;67002;52.124;21.210;2023-05-10T13:56:09;11.40;;;5.30;;
77814;SDS011;67002;52.124;21.210;2023-05-10T13:58:38;14.70;;;5.00;;
77814;SDS011;67002;52.124;21.210;2023-05-10T14:01:06;13.60;;;5.10;;
77814;SDS011;67002;52.124;21.210;2023-05-10T14:03:35;15.40;;;5.90;;
77814;SDS011;67002;52.124;21.210;2023-05-10T14:06:04;22.20;;;6.40;;
77814;SDS011;67002;52.124;21.210;2023-05-10T14:08:34;9.90;;;5.40;;
77814;SDS011;67002;52.124;21.210;2023-05-10T14:11:03;13.30;;;5.90;;
77814;SDS011;67002;52.124;21.210;2023-05-10T14:13:32;11.50;;;6.20;;
77814;SDS011;67002;52.124;21.210;2023-05-10T14:16:00;21.60;;;6.20;;
77814;SDS011;67002;52.124;21.210;2023-05-10T14:18:29;14.70;;;4.90;;
77814;SDS011;67002;52.124;21.210;2023-05-10T14:20:58;18.70;;;6.30;;
77814;SDS011;67002;52.124;21.210;2023-05-10T14:23:26;12.30;;;6.10;;
77814;SDS011;67002;52.124;21.210;2023-05-10T14:25:55;13.10;;;5.20;;
77814;SDS011;67002;52.124;21.210;2023-05-10T14:28:24;11.10;;;5.70;;
77814;SDS011;67002;52.124;21.210;2023-05-10T14:30:53;14.20;;;6.10;;
77814;SDS011;67002;52.124;21.210;2023-05-10T14:33:21;12.40;;;4.70;;
77814;SDS011;67002;52.124;21.210;2023-05-10T14:35:50;13.70;;;5.70;;
77814;SDS011;67002;52.124;21.210;2023-05-10T14:38:19;11.30;;;5.40;;
77814;SDS011;67002;52.124;21.210;2023-05-10T14:40:47;9.00;;;4.80;;
77814;SDS011;67002;52.124;21.210;2023-05-10T14:43:16;21.30;;;6.20;;
77814;SDS011;67002;52.124;21.210;2023-05-10T14:45:45;17.00;;;7.90;;
77814;SDS011;67002;52.124;21.210;2023-05-10T14:48:14;13.30;;;7.80;;
77814;SDS011;67002;52.124;21.210;2023-05-10T14:50:44;14.30;;;7.10;;
77814;SDS011;67002;52.124;21.210;2023-05-10T14:53:13;12.30;;;6.50;;
77814;SDS011;67002;52.124;21.210;2023-05-10T14:55:41;26.50;;;12.50;;
77814;SDS011;67002;52.124;21.210;2023-05-10T14:58:10;39.50;;;18.60;;
77814;SDS011;67002;52.124;21.210;2023-05-10T15:00:38;25.50;;;10.70;;
77814;SDS011;67002;52.124;21.210;2023-05-10T15:03:08;17.50;;;8.20;;
77814;SDS011;67002;52.124;21.210;2023-05-10T15:05:37;19.40;;;10.30;;
77814;SDS011;67002;52.124;21.210;2023-05-10T15:08:05;24.00;;;8.40;;